Time;durP1;ratioP1;P1;durP2;ratioP2;P2;SDS_P1;SDS_P2;PMS_P1;PMS_P2;Temp;Humidity;BMP_temperature;BMP_pressure;BME280_temperature;BME280_humidity;BME280_pressure;Samples;Min_cycle;Max_cycle;Signal;HPM_P1;HPM_P2
2023/12/15 00:00:45;;;;;;;35.77;12.07;;;;;;;;;;4980146;28;20779;-67
2023/12/15 00:03:10;;;;;;;34.35;12.48;;;;;;;;;;4998752;28;20305;-67
2023/12/15 00:05:35;;;;;;;30.65;11.80;;;;;;;;;;4991623;28;20097;-68
2023/12/15 00:08:00;;;;;;;41.23;14.43;;;;;;;;;;4981749;28;20062;-68
2023/12/15 00:10:25;;;;;;;31.90;11.43;;;;;;;;;;4984270;28;20281;-67
2023/12/15 00:12:51;;;;;;;34.07;12.77;;;;;;;;;;4979014;28;20608;-67
2023/12/15 00:15:16;;;;;;;35.30;13.63;;;;;;;;;;4985260;28;20265;-67
2023/12/15 00:17:41;;;;;;;18.90;7.38;;;;;;;;;;4983644;28;20075;-67
2023/12/15 00:20:07;;;;;;;40.90;15.67;;;;;;;;;;4983744;28;20063;-67
2023/12/15 00:22:32;;;;;;;37.70;14.80;;;;;;;;;;4979342;28;20847;-67
2023/12/15 00:24:57;;;;;;;32.90;13.25;;;;;;;;;;5000459;28;20130;-67
2023/12/15 00:27:22;;;;;;;19.23;7.00;;;;;;;;;;4993121;28;20015;-67
2023/12/15 00:29:47;;;;;;;43.93;14.73;;;;;;;;;;4974632;28;20092;-67
2023/12/15 00:32:13;;;;;;;34.77;12.53;;;;;;;;;;4974248;28;20373;-67
2023/12/15 00:34:38;;;;;;;40.60;15.77;;;;;;;;;;4967974;28;20335;-67
2023/12/15 00:37:03;;;;;;;39.55;14.63;;;;;;;;;;4974438;28;20021;-67
2023/12/15 00:39:30;;;;;;;34.27;14.83;;;;;;;;;;4968839;28;20099;-68
2023/12/15 00:41:55;;;;;;;42.53;13.50;;;;;;;;;;4968873;28;20737;-67
2023/12/15 00:44:21;;;;;;;37.65;14.70;;;;;;;;;;4968073;28;20037;-67
2023/12/15 00:46:46;;;;;;;43.78;13.50;;;;;;;;;;4970439;28;20107;-69
2023/12/15 00:49:11;;;;;;;42.83;16.57;;;;;;;;;;4979360;28;20035;-67
2023/12/15 00:51:36;;;;;;;33.57;14.50;;;;;;;;;;4968348;28;20419;-67
2023/12/15 00:54:01;;;;;;;35.57;15.03;;;;;;;;;;4996570;28;20267;-68
2023/12/15 00:56:26;;;;;;;34.70;13.80;;;;;;;;;;4970285;28;20258;-68
2023/12/15 00:58:52;;;;;;;38.65;14.40;;;;;;;;;;4968740;28;20493;-67
2023/12/15 01:01:17;;;;;;;39.60;14.83;;;;;;;;;;4970295;28;20031;-67
2023/12/15 01:03:42;;;;;;;23.00;7.85;;;;;;;;;;4970966;28;20396;-67
2023/12/15 01:06:07;;;;;;;43.90;16.52;;;;;;;;;;4980641;28;20094;-68
2023/12/15 01:08:32;;;;;;;41.20;16.40;;;;;;;;;;4970065;28;20115;-67
2023/12/15 01:10:58;;;;;;;39.25;15.32;;;;;;;;;;4970997;28;20167;-67
2023/12/15 01:13:23;;;;;;;32.45;12.18;;;;;;;;;;4972914;28;20533;-67
2023/12/15 01:15:49;;;;;;;23.52;9.75;;;;;;;;;;4971046;28;20105;-67
2023/12/15 01:18:14;;;;;;;39.75;15.95;;;;;;;;;;4981878;28;20105;-68
2023/12/15 01:20:39;;;;;;;39.60;14.60;;;;;;;;;;4986415;28;20030;-67
2023/12/15 01:23:05;;;;;;;33.60;13.00;;;;;;;;;;4969572;28;20768;-68
2023/12/15 01:25:30;;;;;;;31.92;13.15;;;;;;;;;;4967783;28;20298;-67
2023/12/15 01:27:55;;;;;;;39.77;15.87;;;;;;;;;;4969040;28;20366;-67
2023/12/15 01:30:20;;;;;;;36.63;15.30;;;;;;;;;;4969407;28;20323;-67
2023/12/15 01:32:45;;;;;;;44.37;13.90;;;;;;;;;;4970818;28;20884;-67
2023/12/15 01:35:11;;;;;;;17.92;6.85;;;;;;;;;;4967149;28;20346;-67
2023/12/15 01:37:36;;;;;;;36.97;15.82;;;;;;;;;;4970306;28;20033;-67
2023/12/15 01:40:02;;;;;;;34.30;11.00;;;;;;;;;;4971581;28;20053;-67
2023/12/15 01:42:28;;;;;;;47.85;14.55;;;;;;;;;;4969024;28;20023;-67
2023/12/15 01:44:53;;;;;;;35.00;14.18;;;;;;;;;;4969148;28;20458;-67
2023/12/15 01:47:18;;;;;;;36.97;13.98;;;;;;;;;;4970885;28;20023;-68
2023/12/15 01:49:46;;;;;;;46.47;16.60;;;;;;;;;;4970316;28;20106;-67
2023/12/15 01:52:11;;;;;;;26.90;10.95;;;;;;;;;;4971416;28;20034;-67
2023/12/15 01:54:36;;;;;;;41.40;14.30;;;;;;;;;;4971185;28;20094;-68
2023/12/15 01:57:01;;;;;;;43.10;15.27;;;;;;;;;;4972223;28;20320;-67
2023/12/15 01:59:26;;;;;;;38.63;13.88;;;;;;;;;;4964297;28;20642;-67
2023/12/15 02:01:51;;;;;;;8.53;3.63;;;;;;;;;;4974911;28;20477;-68
2023/12/15 02:04:16;;;;;;;30.40;10.20;;;;;;;;;;4974107;28;20265;-68
2023/12/15 02:06:42;;;;;;;50.17;17.13;;;;;;;;;;4972775;28;20258;-67
2023/12/15 02:09:07;;;;;;;41.93;15.00;;;;;;;;;;4978483;28;20282;-67
2023/12/15 02:11:32;;;;;;;42.63;15.10;;;;;;;;;;4974818;28;20364;-67
2023/12/15 02:13:57;;;;;;;31.77;10.77;;;;;;;;;;4975445;28;20285;-67
2023/12/15 02:16:22;;;;;;;32.67;12.20;;;;;;;;;;4973445;28;20282;-67
2023/12/15 02:18:47;;;;;;;36.38;14.57;;;;;;;;;;4972281;28;20297;-67
2023/12/15 02:21:13;;;;;;;39.10;14.63;;;;;;;;;;4975238;28;20489;-67
2023/12/15 02:23:38;;;;;;;34.10;12.00;;;;;;;;;;4975995;28;20250;-67
2023/12/15 02:26:03;;;;;;;33.50;11.45;;;;;;;;;;4980323;28;20031;-67
2023/12/15 02:28:28;;;;;;;36.65;13.52;;;;;;;;;;4974498;28;20023;-67
2023/12/15 02:30:54;;;;;;;33.08;12.70;;;;;;;;;;4971324;28;20114;-67
2023/12/15 02:33:19;;;;;;;40.72;14.77;;;;;;;;;;4980398;28;20033;-67
2023/12/15 02:35:47;;;;;;;41.70;14.70;;;;;;;;;;4973534;28;20398;-68
2023/12/15 02:38:17;;;;;;;41.13;12.20;;;;;;;;;;4975354;28;20965;-68
2023/12/15 02:40:44;;;;;;;41.72;14.98;;;;;;;;;;4972577;28;20026;-67
2023/12/15 02:43:09;;;;;;;18.80;9.25;;;;;;;;;;4980568;28;20046;-68
2023/12/15 02:45:36;;;;;;;45.83;15.30;;;;;;;;;;4980289;28;20402;-68
2023/12/15 02:48:01;;;;;;;33.97;12.10;;;;;;;;;;4973352;28;20262;-67
2023/12/15 02:50:26;;;;;;;41.50;13.80;;;;;;;;;;4980991;28;20056;-68
2023/12/15 02:52:51;;;;;;;46.47;16.38;;;;;;;;;;4978120;28;20270;-68
2023/12/15 02:55:16;;;;;;;35.30;15.23;;;;;;;;;;4971470;28;20038;-67
2023/12/15 02:57:42;;;;;;;39.97;14.77;;;;;;;;;;4972478;28;20315;-67
2023/12/15 03:00:07;;;;;;;30.23;9.10;;;;;;;;;;4974914;28;20106;-68
2023/12/15 03:02:32;;;;;;;35.60;13.48;;;;;;;;;;4976895;28;20023;-67
2023/12/15 03:04:57;;;;;;;36.88;14.65;;;;;;;;;;4973951;28;20510;-67
2023/12/15 03:07:22;;;;;;;47.07;16.13;;;;;;;;;;4972562;28;20588;-68
2023/12/15 03:09:48;;;;;;;40.80;15.60;;;;;;;;;;4973358;28;20273;-67
2023/12/15 03:12:13;;;;;;;37.63;15.23;;;;;;;;;;4975853;28;20659;-67
2023/12/15 03:14:38;;;;;;;41.38;16.77;;;;;;;;;;4973017;28;20375;-68
2023/12/15 03:17:04;;;;;;;24.13;9.05;;;;;;;;;;4978371;28;20030;-67
2023/12/15 03:19:29;;;;;;;26.70;9.60;;;;;;;;;;4974528;28;20035;-68
2023/12/15 03:21:54;;;;;;;36.37;12.60;;;;;;;;;;4975123;28;20080;-68
2023/12/15 03:24:19;;;;;;;27.67;10.73;;;;;;;;;;4979120;28;20288;-67
2023/12/15 03:26:45;;;;;;;34.60;13.17;;;;;;;;;;4973979;28;20332;-68
2023/12/15 03:29:10;;;;;;;27.27;8.70;;;;;;;;;;4977974;28;20316;-69
2023/12/15 03:31:35;;;;;;;29.63;12.80;;;;;;;;;;4975458;28;20278;-68
2023/12/15 03:34:00;;;;;;;42.53;16.67;;;;;;;;;;4976216;28;20262;-68
2023/12/15 03:36:25;;;;;;;47.23;17.33;;;;;;;;;;4972698;28;20828;-68
2023/12/15 03:38:50;;;;;;;31.77;9.17;;;;;;;;;;4976166;28;20286;-68
2023/12/15 03:41:16;;;;;;;44.07;15.73;;;;;;;;;;4980975;28;20292;-68
2023/12/15 03:43:41;;;;;;;39.63;16.52;;;;;;;;;;4971301;28;20357;-68
2023/12/15 03:46:06;;;;;;;33.57;14.23;;;;;;;;;;4975295;28;20094;-68
2023/12/15 03:48:31;;;;;;;44.35;15.68;;;;;;;;;;4975348;28;20276;-68
2023/12/15 03:50:56;;;;;;;37.37;16.17;;;;;;;;;;4972226;28;20030;-67
2023/12/15 03:53:21;;;;;;;37.10;15.80;;;;;;;;;;4974658;28;20285;-67
2023/12/15 03:55:47;;;;;;;37.03;13.07;;;;;;;;;;4973477;28;20407;-67
2023/12/15 03:58:12;;;;;;;37.70;17.30;;;;;;;;;;4975617;28;21664;-67
2023/12/15 04:00:37;;;;;;;45.78;16.60;;;;;;;;;;4971693;28;20349;-67
2023/12/15 04:03:02;;;;;;;43.27;16.03;;;;;;;;;;4973414;28;20409;-67
2023/12/15 04:05:27;;;;;;;42.93;16.00;;;;;;;;;;4970097;28;20270;-68
2023/12/15 04:07:52;;;;;;;41.60;14.45;;;;;;;;;;4976900;28;20357;-67
2023/12/15 04:10:18;;;;;;;41.33;15.75;;;;;;;;;;4974464;28;20444;-67
2023/12/15 04:12:43;;;;;;;37.03;13.65;;;;;;;;;;4986616;28;20037;-67
2023/12/15 04:15:08;;;;;;;46.05;17.13;;;;;;;;;;4976376;28;20629;-68
2023/12/15 04:17:34;;;;;;;41.58;15.10;;;;;;;;;;4971395;28;20023;-67
2023/12/15 04:19:59;;;;;;;41.22;16.00;;;;;;;;;;4981189;28;20031;-68
2023/12/15 04:22:24;;;;;;;41.10;16.02;;;;;;;;;;4974733;28;20106;-68
2023/12/15 04:24:49;;;;;;;35.33;13.43;;;;;;;;;;4983794;28;20023;-67
2023/12/15 04:27:14;;;;;;;39.40;14.52;;;;;;;;;;4974931;28;20806;-67
2023/12/15 04:29:40;;;;;;;32.40;13.55;;;;;;;;;;4974565;28;20031;-68
2023/12/15 04:32:05;;;;;;;48.60;15.80;;;;;;;;;;4971663;28;20065;-68
2023/12/15 04:34:33;;;;;;;42.27;15.17;;;;;;;;;;4984254;28;20038;-68
2023/12/15 04:36:58;;;;;;;37.53;13.68;;;;;;;;;;4977051;28;20678;-69
2023/12/15 04:39:23;;;;;;;39.70;15.77;;;;;;;;;;4987112;28;20027;-68
2023/12/15 04:41:48;;;;;;;39.03;12.83;;;;;;;;;;4976706;28;20269;-68
2023/12/15 04:44:13;;;;;;;35.58;14.68;;;;;;;;;;4973432;28;20253;-68
2023/12/15 04:46:39;;;;;;;37.17;14.03;;;;;;;;;;4988179;28;20020;-68
2023/12/15 04:49:04;;;;;;;37.85;13.98;;;;;;;;;;4995066;28;20259;-68
2023/12/15 04:51:29;;;;;;;43.58;14.75;;;;;;;;;;4973524;28;20029;-67
2023/12/15 04:53:55;;;;;;;34.40;14.13;;;;;;;;;;4978309;28;20533;-68
2023/12/15 04:56:20;;;;;;;10.10;5.27;;;;;;;;;;4974248;28;20035;-67
2023/12/15 04:58:45;;;;;;;37.95;13.80;;;;;;;;;;4976035;28;20309;-68
2023/12/15 05:01:12;;;;;;;36.60;12.55;;;;;;;;;;4971238;28;20026;-68
2023/12/15 05:03:38;;;;;;;33.35;11.80;;;;;;;;;;4975195;28;20101;-67
2023/12/15 05:06:03;;;;;;;36.25;13.90;;;;;;;;;;4975950;28;20098;-67
2023/12/15 05:08:28;;;;;;;39.17;13.52;;;;;;;;;;4977350;28;20369;-67
2023/12/15 05:10:53;;;;;;;21.98;8.57;;;;;;;;;;4974917;28;20033;-67
2023/12/15 05:13:18;;;;;;;34.67;12.20;;;;;;;;;;4974168;28;20018;-67
2023/12/15 05:15:44;;;;;;;42.20;13.43;;;;;;;;;;4976197;28;20293;-67
2023/12/15 05:18:09;;;;;;;23.27;9.88;;;;;;;;;;4971057;28;20290;-67
2023/12/15 05:20:36;;;;;;;20.43;7.57;;;;;;;;;;4975274;28;20018;-67
2023/12/15 05:23:02;;;;;;;36.08;13.75;;;;;;;;;;4972482;28;20270;-67
2023/12/15 05:25:27;;;;;;;30.13;10.90;;;;;;;;;;4973954;28;20068;-67
2023/12/15 05:27:52;;;;;;;32.23;13.83;;;;;;;;;;4975062;28;20026;-67
2023/12/15 05:30:17;;;;;;;44.15;15.07;;;;;;;;;;4988071;28;20285;-67
2023/12/15 05:32:43;;;;;;;36.10;12.77;;;;;;;;;;4974562;28;20042;-67
2023/12/15 05:35:08;;;;;;;37.75;14.15;;;;;;;;;;4975193;28;20683;-67
2023/12/15 05:37:34;;;;;;;51.50;14.90;;;;;;;;;;4975084;28;20030;-67
2023/12/15 05:39:59;;;;;;;43.63;14.47;;;;;;;;;;4974929;28;20750;-68
2023/12/15 05:42:25;;;;;;;38.05;14.05;;;;;;;;;;4982546;28;20306;-68
2023/12/15 05:44:50;;;;;;;34.70;13.52;;;;;;;;;;4974959;28;20054;-69
2023/12/15 05:47:15;;;;;;;36.67;12.55;;;;;;;;;;4971249;28;20038;-69
2023/12/15 05:49:40;;;;;;;40.10;14.40;;;;;;;;;;4975056;28;20030;-68
2023/12/15 05:52:09;;;;;;;25.05;10.68;;;;;;;;;;4973075;28;20265;-69
2023/12/15 05:54:37;;;;;;;42.70;15.20;;;;;;;;;;4978609;28;20025;-68
2023/12/15 05:57:02;;;;;;;38.17;15.32;;;;;;;;;;4971878;28;20033;-67
2023/12/15 05:59:27;;;;;;;55.60;17.75;;;;;;;;;;4978091;28;20018;-67
2023/12/15 06:01:52;;;;;;;37.63;11.80;;;;;;;;;;4971872;28;20018;-67
2023/12/15 06:04:17;;;;;;;39.00;14.35;;;;;;;;;;4979060;28;20804;-67
2023/12/15 06:06:43;;;;;;;47.43;15.80;;;;;;;;;;4976891;28;20076;-67
2023/12/15 06:09:09;;;;;;;30.37;12.23;;;;;;;;;;4970188;28;20298;-67
2023/12/15 06:11:38;;;;;;;41.67;13.10;;;;;;;;;;4974073;28;20262;-68
2023/12/15 06:14:03;;;;;;;50.50;13.93;;;;;;;;;;4977029;28;20101;-67
2023/12/15 06:16:28;;;;;;;44.97;13.80;;;;;;;;;;4975870;28;20152;-69
2023/12/15 06:18:54;;;;;;;33.72;12.63;;;;;;;;;;4978137;28;20289;-67
2023/12/15 06:21:21;;;;;;;38.60;13.87;;;;;;;;;;4972398;28;20022;-68
2023/12/15 06:23:47;;;;;;;45.28;16.73;;;;;;;;;;4971931;28;20254;-68
2023/12/15 06:26:18;;;;;;;35.13;13.40;;;;;;;;;;4970247;28;20033;-67
2023/12/15 06:28:43;;;;;;;36.30;14.23;;;;;;;;;;4976052;28;20034;-67
2023/12/15 06:31:09;;;;;;;35.50;13.93;;;;;;;;;;4970865;28;20023;-67
2023/12/15 06:33:34;;;;;;;37.67;14.13;;;;;;;;;;4979740;28;20662;-67
2023/12/15 06:35:59;;;;;;;45.40;14.00;;;;;;;;;;4980483;28;20025;-67
2023/12/15 06:38:24;;;;;;;50.70;14.03;;;;;;;;;;4968670;28;20027;-67
2023/12/15 06:40:49;;;;;;;32.47;12.60;;;;;;;;;;4974153;28;20262;-67
2023/12/15 06:43:15;;;;;;;41.17;14.03;;;;;;;;;;4970133;28;20270;-67
2023/12/15 06:45:40;;;;;;;33.33;12.93;;;;;;;;;;4963050;28;20263;-67
2023/12/15 06:48:05;;;;;;;38.50;13.75;;;;;;;;;;4965701;28;20276;-67
2023/12/15 06:50:30;;;;;;;42.03;13.73;;;;;;;;;;4976211;28;20092;-67
2023/12/15 06:52:55;;;;;;;19.87;9.50;;;;;;;;;;4972798;28;20092;-67
2023/12/15 06:55:20;;;;;;;44.53;15.47;;;;;;;;;;5001148;28;20340;-68
2023/12/15 06:57:46;;;;;;;39.67;12.98;;;;;;;;;;4979830;28;20670;-67
2023/12/15 07:00:11;;;;;;;29.83;11.80;;;;;;;;;;4980604;28;20027;-67
2023/12/15 07:02:36;;;;;;;33.03;12.55;;;;;;;;;;4977827;28;20268;-68
2023/12/15 07:05:02;;;;;;;25.80;10.02;;;;;;;;;;4976559;28;20015;-67
2023/12/15 07:07:27;;;;;;;31.23;12.27;;;;;;;;;;4980140;28;20106;-67
2023/12/15 07:09:52;;;;;;;35.80;12.90;;;;;;;;;;4987989;28;20802;-67
2023/12/15 07:12:17;;;;;;;36.05;13.93;;;;;;;;;;4980239;28;20270;-67
2023/12/15 07:14:42;;;;;;;29.40;13.27;;;;;;;;;;4980220;28;20042;-67
2023/12/15 07:17:07;;;;;;;31.70;12.63;;;;;;;;;;4980156;28;20026;-67
2023/12/15 07:19:33;;;;;;;37.53;13.93;;;;;;;;;;4979459;28;20305;-67
2023/12/15 07:21:58;;;;;;;33.83;13.27;;;;;;;;;;4980979;28;20270;-67
2023/12/15 07:24:23;;;;;;;41.73;14.33;;;;;;;;;;4984171;28;20334;-67
2023/12/15 07:26:48;;;;;;;42.28;15.13;;;;;;;;;;4981822;28;20261;-67
2023/12/15 07:29:13;;;;;;;38.63;14.30;;;;;;;;;;4982172;28;20022;-68
2023/12/15 07:31:38;;;;;;;27.20;11.10;;;;;;;;;;4976469;28;20289;-67
2023/12/15 07:34:04;;;;;;;30.90;13.53;;;;;;;;;;4981361;28;20270;-67
2023/12/15 07:36:29;;;;;;;31.60;13.13;;;;;;;;;;4984085;28;20264;-67
2023/12/15 07:38:54;;;;;;;36.00;12.57;;;;;;;;;;4976481;28;20318;-67
2023/12/15 07:41:19;;;;;;;43.95;15.73;;;;;;;;;;4984169;28;20030;-67
2023/12/15 07:43:44;;;;;;;38.33;13.73;;;;;;;;;;4982580;28;20022;-67
2023/12/15 07:46:16;;;;;;;33.20;12.30;;;;;;;;;;4988130;28;20332;-67
2023/12/15 07:48:42;;;;;;;32.92;12.90;;;;;;;;;;4983239;28;20345;-67
2023/12/15 07:51:14;;;;;;;33.43;13.07;;;;;;;;;;4982430;28;20110;-67
2023/12/15 07:53:39;;;;;;;34.50;13.85;;;;;;;;;;4980124;28;20293;-67
2023/12/15 07:56:05;;;;;;;28.23;11.70;;;;;;;;;;4973487;28;20027;-67
2023/12/15 07:58:30;;;;;;;37.40;14.05;;;;;;;;;;4978367;28;20294;-67
2023/12/15 08:00:55;;;;;;;49.47;14.77;;;;;;;;;;4981545;28;20018;-67
2023/12/15 08:03:21;;;;;;;40.67;14.60;;;;;;;;;;4970453;28;20367;-67
2023/12/15 08:05:46;;;;;;;42.45;14.23;;;;;;;;;;4975500;28;20270;-67
2023/12/15 08:08:11;;;;;;;43.97;15.13;;;;;;;;;;4980154;28;20111;-67
2023/12/15 08:10:36;;;;;;;36.95;13.10;;;;;;;;;;4985185;28;20293;-67
2023/12/15 08:13:02;;;;;;;33.20;12.80;;;;;;;;;;4981963;28;20030;-67
2023/12/15 08:15:27;;;;;;;30.40;11.52;;;;;;;;;;4984054;28;20372;-67
2023/12/15 08:17:52;;;;;;;35.35;11.48;;;;;;;;;;4981138;28;20466;-67
2023/12/15 08:20:17;;;;;;;48.72;13.57;;;;;;;;;;4976568;28;20033;-67
2023/12/15 08:22:42;;;;;;;24.58;8.18;;;;;;;;;;4980711;28;20027;-67
2023/12/15 08:25:08;;;;;;;26.60;10.45;;;;;;;;;;4982560;28;20023;-67
2023/12/15 08:27:37;;;;;;;38.00;14.93;;;;;;;;;;4976704;28;20478;-67
2023/12/15 08:30:02;;;;;;;44.05;15.32;;;;;;;;;;4970449;28;20022;-67
2023/12/15 08:32:27;;;;;;;41.33;15.48;;;;;;;;;;4969408;28;20033;-67
2023/12/15 08:34:52;;;;;;;44.95;16.35;;;;;;;;;;4970416;28;20023;-67
2023/12/15 08:37:18;;;;;;;37.23;14.97;;;;;;;;;;4984144;28;20370;-67
2023/12/15 08:39:44;;;;;;;41.47;14.82;;;;;;;;;;4976077;28;20294;-67
2023/12/15 08:42:09;;;;;;;42.63;16.23;;;;;;;;;;4991030;28;20023;-67
2023/12/15 08:44:34;;;;;;;43.03;15.93;;;;;;;;;;4983867;28;20014;-67
2023/12/15 08:47:00;;;;;;;42.38;16.25;;;;;;;;;;4996666;28;20046;-67
2023/12/15 08:49:25;;;;;;;43.40;15.05;;;;;;;;;;4983198;28;20022;-67
2023/12/15 08:51:50;;;;;;;28.17;10.83;;;;;;;;;;4979639;28;20500;-67
2023/12/15 08:54:15;;;;;;;28.70;9.47;;;;;;;;;;4980845;28;20303;-67
2023/12/15 08:56:40;;;;;;;31.27;9.97;;;;;;;;;;4967414;28;20277;-67
2023/12/15 08:59:06;;;;;;;34.45;14.18;;;;;;;;;;4974978;28;20373;-67
2023/12/15 09:01:31;;;;;;;41.90;15.02;;;;;;;;;;4971701;28;20088;-67
2023/12/15 09:03:56;;;;;;;37.50;14.35;;;;;;;;;;4972352;28;20233;-67
2023/12/15 09:06:22;;;;;;;40.17;14.10;;;;;;;;;;4975846;28;20041;-69
2023/12/15 09:08:47;;;;;;;41.55;14.90;;;;;;;;;;4967430;28;20313;-69
2023/12/15 09:11:12;;;;;;;38.95;13.00;;;;;;;;;;4981114;28;20488;-69
2023/12/15 09:13:38;;;;;;;43.07;15.87;;;;;;;;;;4978425;28;20484;-69
2023/12/15 09:16:03;;;;;;;33.47;11.43;;;;;;;;;;4974110;28;20251;-67
2023/12/15 09:18:28;;;;;;;45.47;15.70;;;;;;;;;;4967368;28;20102;-69
2023/12/15 09:20:53;;;;;;;44.95;15.00;;;;;;;;;;4975003;28;20395;-68
2023/12/15 09:23:19;;;;;;;39.58;13.70;;;;;;;;;;4971810;28;20101;-69
2023/12/15 09:25:47;;;;;;;44.78;15.43;;;;;;;;;;4974927;28;20473;-69
2023/12/15 09:28:12;;;;;;;37.58;14.30;;;;;;;;;;4967378;28;20038;-69
2023/12/15 09:30:37;;;;;;;37.43;14.73;;;;;;;;;;4973887;28;20056;-69
2023/12/15 09:33:02;;;;;;;43.22;14.38;;;;;;;;;;4979612;28;20313;-67
2023/12/15 09:35:27;;;;;;;42.08;15.07;;;;;;;;;;4975546;28;20105;-67
2023/12/15 09:37:53;;;;;;;51.22;17.10;;;;;;;;;;4966376;28;20482;-67
2023/12/15 09:40:21;;;;;;;51.50;16.20;;;;;;;;;;4974116;28;20496;-67
2023/12/15 09:42:46;;;;;;;59.45;17.85;;;;;;;;;;4968044;28;20263;-67
2023/12/15 09:45:11;;;;;;;42.55;14.77;;;;;;;;;;4975951;28;20081;-68
2023/12/15 09:47:37;;;;;;;53.70;16.00;;;;;;;;;;4974949;28;20072;-68
2023/12/15 09:50:03;;;;;;;45.78;15.70;;;;;;;;;;4970606;28;20023;-68
2023/12/15 09:52:30;;;;;;;47.92;16.40;;;;;;;;;;4972172;28;20160;-69
2023/12/15 09:54:56;;;;;;;52.15;17.90;;;;;;;;;;4976771;28;20027;-69
2023/12/15 09:57:21;;;;;;;49.75;17.63;;;;;;;;;;4970393;28;20025;-69
2023/12/15 09:59:47;;;;;;;55.30;20.10;;;;;;;;;;4981821;28;20026;-68
2023/12/15 10:02:12;;;;;;;53.15;19.45;;;;;;;;;;4977215;28;20119;-68
2023/12/15 10:04:37;;;;;;;59.33;18.40;;;;;;;;;;4976788;28;20735;-68
2023/12/15 10:07:02;;;;;;;55.03;16.98;;;;;;;;;;4969452;28;20269;-68
2023/12/15 10:09:28;;;;;;;60.45;18.48;;;;;;;;;;4980908;28;20042;-68
2023/12/15 10:11:53;;;;;;;44.45;16.88;;;;;;;;;;4998964;28;20110;-68
2023/12/15 10:14:19;;;;;;;51.60;17.35;;;;;;;;;;4982029;28;20138;-68
2023/12/15 10:16:45;;;;;;;55.70;18.23;;;;;;;;;;4968002;28;20037;-68
2023/12/15 10:19:10;;;;;;;53.42;17.17;;;;;;;;;;4977019;28;20114;-68
2023/12/15 10:21:35;;;;;;;42.08;15.27;;;;;;;;;;4982235;28;20483;-68
2023/12/15 10:24:17;;;;;;;55.47;17.73;;;;;;;;;;4971504;28;20027;-69
2023/12/15 10:26:42;;;;;;;48.20;15.25;;;;;;;;;;4969330;28;20278;-69
2023/12/15 10:29:07;;;;;;;48.03;16.30;;;;;;;;;;4973631;28;20043;-69
2023/12/15 10:31:33;;;;;;;54.40;16.90;;;;;;;;;;4981461;28;20273;-69
2023/12/15 10:33:58;;;;;;;57.87;16.73;;;;;;;;;;4971157;28;20062;-69
2023/12/15 10:36:23;;;;;;;52.58;19.10;;;;;;;;;;4978154;28;20278;-69
2023/12/15 10:38:48;;;;;;;51.40;17.67;;;;;;;;;;4985714;28;20026;-69
2023/12/15 10:41:14;;;;;;;64.65;20.90;;;;;;;;;;4970529;28;20269;-69
2023/12/15 10:43:40;;;;;;;55.88;17.80;;;;;;;;;;4974732;28;20096;-69
2023/12/15 10:46:07;;;;;;;71.32;19.40;;;;;;;;;;4970519;28;20496;-69
2023/12/15 10:48:33;;;;;;;53.75;17.40;;;;;;;;;;4984805;28;20065;-69
2023/12/15 10:50:59;;;;;;;54.90;18.70;;;;;;;;;;4969824;28;20454;-68
2023/12/15 10:53:24;;;;;;;54.20;19.75;;;;;;;;;;4977645;28;20031;-68
2023/12/15 10:55:49;;;;;;;51.00;16.95;;;;;;;;;;4976318;28;20114;-68
2023/12/15 10:58:15;;;;;;;54.75;18.48;;;;;;;;;;4972259;28;20521;-68
2023/12/15 11:00:40;;;;;;;51.35;18.70;;;;;;;;;;4975330;28;20022;-68
2023/12/15 11:03:09;;;;;;;58.17;19.27;;;;;;;;;;4972966;28;20030;-68
2023/12/15 11:05:35;;;;;;;58.50;18.02;;;;;;;;;;4983670;28;20034;-68
2023/12/15 11:08:00;;;;;;;54.97;19.65;;;;;;;;;;4971890;28;20033;-69
2023/12/15 11:10:25;;;;;;;61.85;21.70;;;;;;;;;;4968541;28;20031;-69
2023/12/15 11:12:52;;;;;;;68.30;23.58;;;;;;;;;;4977462;28;20031;-69
2023/12/15 11:15:20;;;;;;;60.88;23.35;;;;;;;;;;4980460;28;20046;-69
2023/12/15 11:17:52;;;;;;;67.60;21.85;;;;;;;;;;4974499;28;20055;-69
2023/12/15 11:20:20;;;;;;;63.03;22.05;;;;;;;;;;4991721;28;20039;-67
2023/12/15 11:23:04;;;;;;;57.00;21.27;;;;;;;;;;5002683;28;20031;-67
2023/12/15 11:25:31;;;;;;;68.88;20.77;;;;;;;;;;4989217;28;20019;-67
2023/12/15 11:28:00;;;;;;;73.47;20.58;;;;;;;;;;5000599;28;20109;-67
2023/12/15 11:30:29;;;;;;;59.72;21.08;;;;;;;;;;4993462;28;20054;-67
2023/12/15 11:32:55;;;;;;;71.20;22.20;;;;;;;;;;5033198;28;20024;-67
2023/12/15 11:35:32;;;;;;;77.55;23.05;;;;;;;;;;5031011;28;20024;-67
2023/12/15 11:37:58;;;;;;;68.00;22.00;;;;;;;;;;4999636;28;20489;-67
2023/12/15 11:40:23;;;;;;;68.97;23.52;;;;;;;;;;4996080;28;20055;-68
2023/12/15 11:42:51;;;;;;;74.43;23.67;;;;;;;;;;5000198;28;20113;-67
2023/12/15 11:45:17;;;;;;;69.97;22.77;;;;;;;;;;4981521;28;20477;-67
2023/12/15 11:47:43;;;;;;;69.75;22.85;;;;;;;;;;4970111;28;20363;-67
2023/12/15 11:50:08;;;;;;;84.30;24.50;;;;;;;;;;4977451;28;20034;-67
2023/12/15 11:52:34;;;;;;;84.80;24.48;;;;;;;;;;4973010;28;20023;-68
2023/12/15 11:54:59;;;;;;;91.32;25.77;;;;;;;;;;4973562;28;20534;-67
2023/12/15 11:57:26;;;;;;;94.93;28.83;;;;;;;;;;4976807;28;20030;-67
2023/12/15 11:59:51;;;;;;;94.70;27.17;;;;;;;;;;4974212;28;20031;-67
2023/12/15 12:02:16;;;;;;;89.45;27.52;;;;;;;;;;4977236;28;20028;-67
2023/12/15 12:04:47;;;;;;;97.00;26.65;;;;;;;;;;4973666;28;20466;-67
2023/12/15 12:07:13;;;;;;;95.18;26.90;;;;;;;;;;4971163;28;20033;-67
2023/12/15 12:09:38;;;;;;;90.75;25.98;;;;;;;;;;4970716;28;20448;-68
2023/12/15 12:12:03;;;;;;;100.25;26.35;;;;;;;;;;4969904;28;20027;-67
2023/12/15 12:14:28;;;;;;;81.68;26.10;;;;;;;;;;4968862;28;20018;-67
2023/12/15 12:16:55;;;;;;;92.97;26.83;;;;;;;;;;4970610;28;20045;-67
2023/12/15 12:19:21;;;;;;;95.40;25.42;;;;;;;;;;4969362;28;20325;-67
2023/12/15 12:21:47;;;;;;;103.68;26.45;;;;;;;;;;4970452;28;20241;-67
2023/12/15 12:24:12;;;;;;;91.97;26.15;;;;;;;;;;4971093;28;20031;-67
2023/12/15 12:26:37;;;;;;;98.45;25.85;;;;;;;;;;4970914;28;20018;-67
2023/12/15 12:29:02;;;;;;;93.87;28.43;;;;;;;;;;4970186;28;20038;-67
2023/12/15 12:31:28;;;;;;;84.47;26.48;;;;;;;;;;5039660;28;20620;-67
2023/12/15 12:33:53;;;;;;;80.47;24.73;;;;;;;;;;5037536;28;20099;-67
2023/12/15 12:36:18;;;;;;;78.77;24.90;;;;;;;;;;4971096;28;20644;-67
2023/12/15 12:38:44;;;;;;;88.87;23.87;;;;;;;;;;4975059;28;20365;-67
2023/12/15 12:41:09;;;;;;;74.05;23.42;;;;;;;;;;4969197;28;20672;-67
2023/12/15 12:43:34;;;;;;;68.23;22.77;;;;;;;;;;4971587;28;20027;-67
2023/12/15 12:46:00;;;;;;;66.03;21.87;;;;;;;;;;4969463;28;20277;-67
2023/12/15 12:48:25;;;;;;;81.45;25.95;;;;;;;;;;5003507;28;20296;-67
2023/12/15 12:50:51;;;;;;;75.97;27.10;;;;;;;;;;4971139;28;20023;-67
2023/12/15 12:53:16;;;;;;;67.30;23.83;;;;;;;;;;4976246;28;20074;-67
2023/12/15 12:55:41;;;;;;;71.90;22.97;;;;;;;;;;4965801;28;20270;-67
2023/12/15 12:58:06;;;;;;;83.30;25.08;;;;;;;;;;4973655;28;20274;-67
2023/12/15 13:00:31;;;;;;;67.32;22.45;;;;;;;;;;4965811;28;20064;-67
2023/12/15 13:02:56;;;;;;;69.13;23.57;;;;;;;;;;4972288;28;20080;-67
2023/12/15 13:05:22;;;;;;;63.40;23.13;;;;;;;;;;5015999;28;20377;-67
2023/12/15 13:07:47;;;;;;;79.70;23.95;;;;;;;;;;4969095;28;20749;-67
2023/12/15 13:10:15;;;;;;;73.07;24.93;;;;;;;;;;4975719;28;20030;-68
2023/12/15 13:12:44;;;;;;;63.42;23.33;;;;;;;;;;4970086;28;20664;-67
2023/12/15 13:15:13;;;;;;;69.23;22.53;;;;;;;;;;4970902;28;20481;-67
2023/12/15 13:17:39;;;;;;;63.40;21.10;;;;;;;;;;4970938;28;20270;-67
2023/12/15 13:20:05;;;;;;;70.38;22.02;;;;;;;;;;4969077;28;20436;-67
2023/12/15 13:22:30;;;;;;;72.47;24.10;;;;;;;;;;4970808;28;20026;-67
2023/12/15 13:24:55;;;;;;;66.78;20.63;;;;;;;;;;4970975;28;20466;-67
2023/12/15 13:27:23;;;;;;;69.13;20.63;;;;;;;;;;4976572;28;20022;-67
2023/12/15 13:29:48;;;;;;;68.10;22.70;;;;;;;;;;4970161;28;20269;-67
2023/12/15 13:32:14;;;;;;;76.93;24.00;;;;;;;;;;4981306;28;20387;-67
2023/12/15 13:34:39;;;;;;;76.03;23.48;;;;;;;;;;4970710;28;20034;-67
2023/12/15 13:37:05;;;;;;;72.63;25.55;;;;;;;;;;5000900;28;20022;-67
2023/12/15 13:39:30;;;;;;;77.10;25.20;;;;;;;;;;4975430;28;20402;-67
2023/12/15 13:41:55;;;;;;;74.55;26.65;;;;;;;;;;4969960;28;20393;-67
2023/12/15 13:44:20;;;;;;;76.72;25.02;;;;;;;;;;4968319;28;20069;-67
2023/12/15 13:46:47;;;;;;;75.95;24.13;;;;;;;;;;4969885;28;20019;-67
2023/12/15 13:49:15;;;;;;;70.45;22.48;;;;;;;;;;4971184;28;20095;-67
2023/12/15 13:51:41;;;;;;;66.78;22.08;;;;;;;;;;4970831;28;20378;-67
2023/12/15 13:54:06;;;;;;;61.55;21.17;;;;;;;;;;4970761;28;20041;-67
2023/12/15 13:56:32;;;;;;;66.77;26.20;;;;;;;;;;4979301;28;20431;-67
2023/12/15 13:58:57;;;;;;;73.82;24.38;;;;;;;;;;4975076;28;20868;-67
2023/12/15 14:01:23;;;;;;;57.28;20.55;;;;;;;;;;4975026;28;20073;-67
2023/12/15 14:03:48;;;;;;;76.22;26.83;;;;;;;;;;4974514;28;20027;-67
2023/12/15 14:06:13;;;;;;;62.90;22.48;;;;;;;;;;4985798;28;20038;-67
2023/12/15 14:08:39;;;;;;;65.35;22.83;;;;;;;;;;4974954;28;20038;-67